createdAt,value
2019-03-24T00:01:01.103Z,25.57
2019-03-24T00:03:31.258Z,23.93
2019-03-24T00:06:01.474Z,24.83
2019-03-24T00:08:31.610Z,23.57
2019-03-24T00:11:01.769Z,23.43
2019-03-24T00:13:31.869Z,24.73
2019-03-24T00:16:02.037Z,25.00
2019-03-24T00:18:32.187Z,25.37
2019-03-24T00:21:02.477Z,26.23
2019-03-24T00:23:32.571Z,26.07
2019-03-24T00:26:02.693Z,25.57
2019-03-24T00:28:32.797Z,26.83
2019-03-24T00:31:02.937Z,25.57
2019-03-24T00:33:33.075Z,26.33
2019-03-24T00:36:03.254Z,25.80
2019-03-24T00:38:33.333Z,25.37
2019-03-24T00:41:03.407Z,25.57
2019-03-24T00:43:33.537Z,25.27
2019-03-24T00:46:03.681Z,25.23
2019-03-24T00:48:39.797Z,25.17
2019-03-24T00:51:10.032Z,24.37
2019-03-24T00:53:40.149Z,24.43
2019-03-24T00:56:10.316Z,26.17
2019-03-24T00:58:40.455Z,26.37
2019-03-24T01:01:10.570Z,26.13
2019-03-24T01:03:45.779Z,25.07
2019-03-24T01:06:34.695Z,25.17
2019-03-24T01:09:06.975Z,25.97
2019-03-24T01:11:37.482Z,25.53
2019-03-24T01:14:07.744Z,25.80
2019-03-24T01:16:37.958Z,26.93
2019-03-24T01:19:08.412Z,26.47
2019-03-24T01:21:38.513Z,26.17
2019-03-24T01:24:08.657Z,26.07
2019-03-24T01:26:38.771Z,25.40
2019-03-24T01:29:08.943Z,25.90
2019-03-24T01:31:39.071Z,25.07
2019-03-24T01:34:09.199Z,25.37
2019-03-24T01:36:39.339Z,26.00
2019-03-24T01:39:09.455Z,25.30
2019-03-24T01:41:39.576Z,25.43
2019-03-24T01:44:09.667Z,25.83
2019-03-24T01:46:39.776Z,23.93
2019-03-24T01:49:09.931Z,26.77
2019-03-24T01:51:40.035Z,26.77
2019-03-24T01:54:10.137Z,26.43
2019-03-24T01:56:40.293Z,26.17
2019-03-24T01:59:10.435Z,26.37
2019-03-24T02:01:40.560Z,25.37
2019-03-24T02:04:10.671Z,26.33
2019-03-24T02:06:40.778Z,26.30
2019-03-24T02:09:11.173Z,25.80
2019-03-24T02:11:41.328Z,25.10
2019-03-24T02:14:11.438Z,26.80
2019-03-24T02:16:41.714Z,25.93
2019-03-24T02:19:11.875Z,25.50
2019-03-24T02:21:42.056Z,26.07
2019-03-24T02:24:12.164Z,25.70
2019-03-24T02:26:42.277Z,25.23
2019-03-24T02:29:12.457Z,25.83
2019-03-24T02:31:42.620Z,25.10
2019-03-24T02:34:12.752Z,25.20
2019-03-24T02:36:42.897Z,25.63
2019-03-24T02:39:13.090Z,25.77
2019-03-24T02:41:43.176Z,25.57
2019-03-24T02:44:13.331Z,26.63
2019-03-24T02:46:43.439Z,26.00
2019-03-24T02:49:13.545Z,25.70
2019-03-24T02:51:43.656Z,26.97
2019-03-24T02:54:13.852Z,25.73
2019-03-24T02:56:43.987Z,25.20
2019-03-24T02:59:14.325Z,26.40
2019-03-24T03:01:44.464Z,25.90
2019-03-24T03:04:14.570Z,25.60
2019-03-24T03:06:44.733Z,23.70
2019-03-24T03:09:14.960Z,25.53
2019-03-24T03:11:45.124Z,23.87
2019-03-24T03:14:15.251Z,24.10
2019-03-24T03:16:45.401Z,25.23
2019-03-24T03:19:15.513Z,24.27
2019-03-24T03:21:45.717Z,23.87
2019-03-24T03:24:15.825Z,24.97
2019-03-24T03:26:45.945Z,23.47
2019-03-24T03:29:16.095Z,23.73
2019-03-24T03:31:46.252Z,23.90
2019-03-24T03:34:16.430Z,24.93
2019-03-24T03:36:46.705Z,23.80
2019-03-24T03:39:17.099Z,25.27
2019-03-24T03:41:47.163Z,25.27
2019-03-24T03:44:17.336Z,26.00
2019-03-24T03:46:52.999Z,24.97
2019-03-24T03:49:19.275Z,24.67
2019-03-24T03:51:49.372Z,23.67
2019-03-24T03:54:19.504Z,25.63
2019-03-24T03:56:49.639Z,25.03
2019-03-24T03:59:19.693Z,25.10
2019-03-24T04:01:49.766Z,25.07
2019-03-24T04:04:19.877Z,25.60
2019-03-24T04:06:50.009Z,26.30
2019-03-24T04:09:20.153Z,24.63
2019-03-24T04:11:50.289Z,24.53
2019-03-24T04:14:20.392Z,25.40
2019-03-24T04:16:50.514Z,26.17
2019-03-24T04:19:20.658Z,26.50
2019-03-24T04:21:50.813Z,27.10
2019-03-24T04:24:20.925Z,26.17
2019-03-24T04:26:51.071Z,25.43
2019-03-24T04:29:21.208Z,25.33
2019-03-24T04:31:51.355Z,25.37
2019-03-24T04:34:21.474Z,24.87
2019-03-24T04:36:51.591Z,24.70
2019-03-24T04:39:21.725Z,26.00
2019-03-24T04:41:51.831Z,25.83
2019-03-24T04:44:40.691Z,25.30
2019-03-24T04:47:16.499Z,25.20
2019-03-24T04:49:42.645Z,24.63
2019-03-24T04:52:12.757Z,24.43
2019-03-24T04:54:42.979Z,25.20
2019-03-24T04:57:13.081Z,25.70
2019-03-24T04:59:43.222Z,25.07
2019-03-24T05:02:13.353Z,24.27
2019-03-24T05:04:43.483Z,25.13
2019-03-24T05:07:14.405Z,23.13
2019-03-24T05:09:44.735Z,23.83
2019-03-24T05:12:14.855Z,22.57
2019-03-24T05:14:45.040Z,24.07
2019-03-24T05:17:15.127Z,23.87
2019-03-24T05:19:45.241Z,22.80
2019-03-24T05:22:15.395Z,23.23
2019-03-24T05:24:45.544Z,23.23
2019-03-24T05:27:15.647Z,22.73
2019-03-24T05:29:45.762Z,23.27
2019-03-24T05:32:15.876Z,22.97
2019-03-24T05:34:46.110Z,23.47
2019-03-24T05:37:16.224Z,24.13
2019-03-24T05:39:46.433Z,23.30
2019-03-24T05:42:16.548Z,23.43
2019-03-24T05:44:46.734Z,23.40
2019-03-24T05:47:16.848Z,23.47
2019-03-24T05:49:47.064Z,23.73
2019-03-24T05:52:17.290Z,22.93
2019-03-24T05:54:47.535Z,22.73
2019-03-24T05:57:17.758Z,22.97
2019-03-24T06:00:07.016Z,23.93
2019-03-24T06:02:37.302Z,23.70
2019-03-24T06:05:07.960Z,22.77
2019-03-24T06:07:38.308Z,22.80
2019-03-24T06:10:08.866Z,22.93
2019-03-24T06:12:39.140Z,22.10
2019-03-24T06:15:09.570Z,22.07
2019-03-24T06:17:47.688Z,21.73
2019-03-24T06:20:12.554Z,20.97
2019-03-24T06:22:42.716Z,21.30
2019-03-24T06:25:13.127Z,22.20
2019-03-24T06:27:43.232Z,21.90
2019-03-24T06:30:13.540Z,21.17
2019-03-24T06:32:44.019Z,18.87
2019-03-24T06:35:14.325Z,21.97
2019-03-24T06:37:44.442Z,22.00
2019-03-24T06:40:15.072Z,21.40
2019-03-24T06:42:45.603Z,22.53
2019-03-24T06:45:15.985Z,22.57
2019-03-24T06:47:46.553Z,21.60
2019-03-24T06:50:16.613Z,22.07
2019-03-24T06:52:46.783Z,23.20
2019-03-24T06:55:17.006Z,23.10
2019-03-24T06:57:47.577Z,22.87
2019-03-24T07:00:17.953Z,22.47
2019-03-24T07:02:48.205Z,22.57
2019-03-24T07:05:18.336Z,22.27
2019-03-24T07:07:48.467Z,22.23
2019-03-24T07:10:18.591Z,22.97
2019-03-24T07:12:48.733Z,21.60
2019-03-24T07:15:18.897Z,22.60
2019-03-24T07:17:49.052Z,22.27
2019-03-24T07:20:19.189Z,23.40
2019-03-24T07:22:49.321Z,22.40
2019-03-24T07:25:19.476Z,23.73
2019-03-24T07:27:49.630Z,22.63
2019-03-24T07:30:20.139Z,21.40
2019-03-24T07:32:50.587Z,21.03
2019-03-24T07:35:20.811Z,22.50
2019-03-24T07:37:51.169Z,21.10
2019-03-24T07:40:21.331Z,20.80
2019-03-24T07:42:51.431Z,20.23
2019-03-24T07:45:21.673Z,21.57
2019-03-24T07:47:52.297Z,21.40
2019-03-24T07:50:22.629Z,20.23
2019-03-24T07:52:52.833Z,21.10
2019-03-24T07:55:22.979Z,20.17
2019-03-24T07:57:53.339Z,20.53
2019-03-24T08:00:42.199Z,19.63
2019-03-24T08:03:12.576Z,20.30
2019-03-24T08:05:42.673Z,19.87
2019-03-24T08:08:13.046Z,19.50
2019-03-24T08:10:43.322Z,19.87
2019-03-24T08:13:13.766Z,18.87
2019-03-24T08:15:44.172Z,19.57
2019-03-24T08:18:14.448Z,19.23
2019-03-24T08:20:44.860Z,19.37
2019-03-24T08:23:15.090Z,19.03
2019-03-24T08:25:45.323Z,19.37
2019-03-24T08:28:15.596Z,20.80
2019-03-24T08:30:45.966Z,18.93
2019-03-24T08:33:16.392Z,20.43
2019-03-24T08:35:46.611Z,20.00
2019-03-24T08:38:17.046Z,19.20
2019-03-24T08:40:47.372Z,19.70
2019-03-24T08:43:17.726Z,19.97
2019-03-24T08:45:47.912Z,20.60
2019-03-24T08:48:18.198Z,20.30
2019-03-24T08:50:48.358Z,21.10
2019-03-24T08:53:18.486Z,20.53
2019-03-24T08:55:48.804Z,21.60
2019-03-24T08:58:19.123Z,20.17
2019-03-24T09:00:49.315Z,19.97
2019-03-24T09:03:19.498Z,22.63
2019-03-24T09:05:49.925Z,22.63
2019-03-24T09:08:20.196Z,24.33
2019-03-24T09:10:50.392Z,22.70
2019-03-24T09:13:20.749Z,23.10
2019-03-24T09:15:51.114Z,23.70
2019-03-24T09:18:21.328Z,23.57
2019-03-24T09:20:51.459Z,23.83
2019-03-24T09:23:21.621Z,23.77
2019-03-24T09:25:51.790Z,23.70
2019-03-24T09:28:22.217Z,23.67
2019-03-24T09:30:54.653Z,22.57
2019-03-24T09:33:25.004Z,24.00
2019-03-24T09:35:55.503Z,23.73
2019-03-24T09:38:25.770Z,23.97
2019-03-24T09:40:55.979Z,23.57
2019-03-24T09:43:26.142Z,23.97
2019-03-24T09:45:56.596Z,24.20
2019-03-24T09:48:27.106Z,23.33
2019-03-24T09:50:57.377Z,23.10
2019-03-24T09:53:27.516Z,23.30
2019-03-24T09:55:57.956Z,23.60
2019-03-24T09:58:28.203Z,23.23
2019-03-24T10:00:58.506Z,22.50
2019-03-24T10:03:28.968Z,22.80
2019-03-24T10:05:59.318Z,23.23
2019-03-24T10:08:29.719Z,22.57
2019-03-24T10:11:00.054Z,22.60
2019-03-24T10:13:30.169Z,22.57
2019-03-24T10:16:00.531Z,22.53
2019-03-24T10:18:30.993Z,22.27
2019-03-24T10:21:01.362Z,22.97
2019-03-24T10:23:31.589Z,21.57
2019-03-24T10:26:01.959Z,22.40
2019-03-24T10:28:35.089Z,23.13
2019-03-24T10:31:05.455Z,22.13
2019-03-24T10:33:35.773Z,23.10
2019-03-24T10:36:06.146Z,21.77
2019-03-24T10:38:36.241Z,21.93
2019-03-24T10:41:08.455Z,22.47
2019-03-24T10:43:38.641Z,24.17
2019-03-24T10:46:08.767Z,24.10
2019-03-24T10:48:38.899Z,24.83
2019-03-24T10:51:09.066Z,25.10
2019-03-24T10:53:39.243Z,24.30
2019-03-24T10:56:09.385Z,23.73
2019-03-24T10:58:39.543Z,24.43
2019-03-24T11:01:09.731Z,24.97
2019-03-24T11:03:39.877Z,26.07
2019-03-24T11:06:10.017Z,24.70
2019-03-24T11:08:40.091Z,25.70
2019-03-24T11:11:10.222Z,25.07
2019-03-24T11:13:40.343Z,26.93
2019-03-24T11:16:10.537Z,28.07
2019-03-24T11:18:40.715Z,28.37
2019-03-24T11:21:10.849Z,28.87
2019-03-24T11:23:41.000Z,28.13
2019-03-24T11:26:11.146Z,27.93
2019-03-24T11:28:41.246Z,28.43
2019-03-24T11:31:11.365Z,28.17
2019-03-24T11:33:41.504Z,30.43
2019-03-24T11:36:11.630Z,29.67
2019-03-24T11:38:41.796Z,28.60
2019-03-24T11:41:12.157Z,29.53
2019-03-24T11:43:42.278Z,32.33
2019-03-24T11:46:12.661Z,34.57
2019-03-24T11:48:43.086Z,33.30
2019-03-24T11:51:13.609Z,34.20
2019-03-24T11:53:43.728Z,35.07
2019-03-24T11:56:13.933Z,33.27
2019-03-24T11:58:44.354Z,32.67
2019-03-24T12:01:14.975Z,33.07
2019-03-24T12:03:45.168Z,32.87
2019-03-24T12:06:15.348Z,31.30
2019-03-24T12:08:45.514Z,31.73
2019-03-24T12:11:16.087Z,31.50
2019-03-24T12:13:46.229Z,31.53
2019-03-24T12:16:16.383Z,30.17
2019-03-24T12:18:46.932Z,30.70
2019-03-24T12:21:17.080Z,30.67
2019-03-24T12:23:47.311Z,30.13
2019-03-24T12:26:17.467Z,28.37
2019-03-24T12:28:47.572Z,29.30
2019-03-24T12:31:17.741Z,28.13
2019-03-24T12:33:47.881Z,27.20
2019-03-24T12:36:18.038Z,28.00
2019-03-24T12:38:48.202Z,26.33
2019-03-24T12:41:18.342Z,27.03
2019-03-24T12:43:48.468Z,27.83
2019-03-24T12:46:18.754Z,27.50
2019-03-24T12:48:48.854Z,29.07
2019-03-24T12:51:19.102Z,27.13
2019-03-24T12:53:49.467Z,26.77
2019-03-24T12:56:19.582Z,26.20
2019-03-24T12:58:49.745Z,26.90
2019-03-24T13:01:19.823Z,28.33
2019-03-24T13:03:49.950Z,26.80
2019-03-24T13:06:20.076Z,27.17
2019-03-24T13:08:50.252Z,26.40
2019-03-24T13:11:20.369Z,26.57
2019-03-24T13:13:50.509Z,24.87
2019-03-24T13:16:20.674Z,26.23
2019-03-24T13:18:50.872Z,26.67
2019-03-24T13:21:21.166Z,24.60
2019-03-24T13:23:51.519Z,25.53
2019-03-24T13:26:21.615Z,25.33
2019-03-24T13:28:51.791Z,26.40
2019-03-24T13:31:40.704Z,28.03
2019-03-24T13:34:11.155Z,27.20
2019-03-24T13:36:41.488Z,26.17
2019-03-24T13:39:11.811Z,26.63
2019-03-24T13:41:42.250Z,26.97
2019-03-24T13:44:12.533Z,27.13
2019-03-24T13:46:42.687Z,29.57
2019-03-24T13:49:12.837Z,28.43
2019-03-24T13:52:01.679Z,26.50
2019-03-24T13:54:31.854Z,29.00
2019-03-24T13:57:01.993Z,28.60
2019-03-24T13:59:32.172Z,29.03
2019-03-24T14:02:02.341Z,26.77
2019-03-24T14:04:32.739Z,26.80
2019-03-24T14:07:02.869Z,26.70
2019-03-24T14:09:32.987Z,28.47
2019-03-24T14:12:03.125Z,29.03
2019-03-24T14:14:33.259Z,29.23
2019-03-24T14:17:03.584Z,28.60
2019-03-24T14:19:34.503Z,28.33
2019-03-24T14:22:04.969Z,26.07
2019-03-24T14:24:35.264Z,26.43
2019-03-24T14:27:05.443Z,28.70
2019-03-24T14:29:35.616Z,30.43
2019-03-24T14:32:05.725Z,32.73
2019-03-24T14:34:35.967Z,30.00
2019-03-24T14:37:06.489Z,28.67
2019-03-24T14:39:36.735Z,28.50
2019-03-24T14:42:07.131Z,27.67
2019-03-24T14:44:37.565Z,27.27
2019-03-24T14:47:07.967Z,29.20
2019-03-24T14:49:38.309Z,28.80
2019-03-24T14:52:08.977Z,30.67
2019-03-24T14:54:39.396Z,26.60
2019-03-24T14:57:09.683Z,26.13
2019-03-24T14:59:40.019Z,32.23
2019-03-24T15:02:10.238Z,32.00
2019-03-24T15:04:40.692Z,26.03
2019-03-24T15:07:11.193Z,24.93
2019-03-24T15:09:41.422Z,28.33
2019-03-24T15:12:11.603Z,27.30
2019-03-24T15:14:41.991Z,26.43
2019-03-24T15:17:12.455Z,25.23
2019-03-24T15:19:42.705Z,26.77
2019-03-24T15:22:13.248Z,25.93
2019-03-24T15:24:43.673Z,25.87
2019-03-24T15:27:14.012Z,27.03
2019-03-24T15:29:44.301Z,26.23
2019-03-24T15:32:14.432Z,26.30
2019-03-24T15:34:44.741Z,26.27
2019-03-24T15:37:15.062Z,26.10
2019-03-24T15:39:45.426Z,27.23
2019-03-24T15:42:25.359Z,25.63
2019-03-24T15:44:55.664Z,25.83
2019-03-24T15:47:26.002Z,27.23
2019-03-24T15:49:58.429Z,26.73
2019-03-24T15:52:33.523Z,27.13
2019-03-24T15:55:04.074Z,26.57
2019-03-24T15:57:34.440Z,26.33
2019-03-24T16:00:06.235Z,26.40
2019-03-24T16:02:36.571Z,26.87
2019-03-24T16:05:07.031Z,25.93
2019-03-24T16:07:37.287Z,25.90
2019-03-24T16:10:07.534Z,24.10
2019-03-24T16:12:37.960Z,24.57
2019-03-24T16:15:08.738Z,24.70
2019-03-24T16:17:38.992Z,25.53
2019-03-24T16:20:09.585Z,24.93
2019-03-24T16:22:40.720Z,24.60
2019-03-24T16:25:11.064Z,23.97
2019-03-24T16:27:41.617Z,25.00
2019-03-24T16:30:12.292Z,23.27
2019-03-24T16:32:42.626Z,25.00
2019-03-24T16:35:12.838Z,24.30
2019-03-24T16:37:43.484Z,24.87
2019-03-24T16:40:14.457Z,25.47
2019-03-24T16:42:44.636Z,24.53
2019-03-24T16:45:15.145Z,23.30
2019-03-24T16:47:45.532Z,22.53
2019-03-24T16:50:15.881Z,22.67
2019-03-24T16:52:46.123Z,29.27
2019-03-24T16:55:16.465Z,48.87
2019-03-24T16:57:46.996Z,88.27
2019-03-24T17:00:17.590Z,33.63
2019-03-24T17:02:47.736Z,26.00
2019-03-24T17:05:18.084Z,23.67
2019-03-24T17:08:07.040Z,21.53
2019-03-24T17:10:37.288Z,21.37
2019-03-24T17:13:07.701Z,22.10
2019-03-24T17:15:37.998Z,21.57
2019-03-24T17:18:08.244Z,21.80
2019-03-24T17:20:38.621Z,21.70
2019-03-24T17:23:08.954Z,21.60
2019-03-24T17:25:39.111Z,22.90
2019-03-24T17:28:09.513Z,23.27
2019-03-24T17:30:39.749Z,21.50
2019-03-24T17:33:10.068Z,22.57
2019-03-24T17:35:40.320Z,19.13
2019-03-24T17:38:10.573Z,24.13
2019-03-24T17:40:40.972Z,17.80
2019-03-24T17:43:11.337Z,16.83
2019-03-24T17:45:41.695Z,16.10
2019-03-24T17:48:12.030Z,16.60
2019-03-24T17:50:42.294Z,17.43
2019-03-24T17:53:12.651Z,16.73
2019-03-24T17:55:42.829Z,17.50
2019-03-24T17:58:20.463Z,16.77
2019-03-24T18:00:53.410Z,17.13
2019-03-24T18:03:23.545Z,17.17
2019-03-24T18:05:53.728Z,16.33
2019-03-24T18:08:23.851Z,16.73
2019-03-24T18:10:53.933Z,16.37
2019-03-24T18:13:24.061Z,19.83
2019-03-24T18:15:54.223Z,17.30
2019-03-24T18:18:24.335Z,17.23
2019-03-24T18:20:54.539Z,17.23
2019-03-24T18:23:24.770Z,17.00
2019-03-24T18:25:54.937Z,16.77
2019-03-24T18:28:25.120Z,17.17
2019-03-24T18:30:55.253Z,17.20
2019-03-24T18:33:25.451Z,18.43
2019-03-24T18:35:55.811Z,22.17
2019-03-24T18:38:27.575Z,21.87
2019-03-24T18:40:57.691Z,25.67
2019-03-24T18:43:28.306Z,23.93
2019-03-24T18:45:58.602Z,22.60
2019-03-24T18:48:29.327Z,20.00
2019-03-24T18:51:07.163Z,17.87
2019-03-24T18:53:37.334Z,18.27
2019-03-24T18:56:07.510Z,16.73
2019-03-24T18:58:37.749Z,20.13
2019-03-24T19:01:08.254Z,19.87
2019-03-24T19:03:38.507Z,27.90
2019-03-24T19:06:08.735Z,37.97
2019-03-24T19:08:39.211Z,23.40
2019-03-24T19:11:09.602Z,21.90
2019-03-24T19:13:40.044Z,16.80
2019-03-24T19:16:10.388Z,17.40
2019-03-24T19:18:40.718Z,17.80
2019-03-24T19:21:10.962Z,17.50
2019-03-24T19:23:41.469Z,17.27
2019-03-24T19:26:12.038Z,17.30
2019-03-24T19:28:42.633Z,17.53
2019-03-24T19:31:13.220Z,17.87
2019-03-24T19:33:43.893Z,17.97
2019-03-24T19:36:14.545Z,22.77
2019-03-24T19:38:45.215Z,26.40
2019-03-24T19:41:15.697Z,27.67
2019-03-24T19:43:46.016Z,28.10
2019-03-24T19:46:16.480Z,28.60
2019-03-24T19:48:46.804Z,28.77
2019-03-24T19:51:17.093Z,29.67
2019-03-24T19:53:47.637Z,29.70
2019-03-24T19:56:18.160Z,30.27
2019-03-24T19:58:48.561Z,30.50
2019-03-24T20:01:18.943Z,30.03
2019-03-24T20:03:49.575Z,30.23
2019-03-24T20:06:20.093Z,32.40
2019-03-24T20:08:51.014Z,35.37
2019-03-24T20:11:21.546Z,37.83
2019-03-24T20:13:52.072Z,34.73
2019-03-24T20:16:22.435Z,33.50
2019-03-24T20:19:11.296Z,33.40
2019-03-24T20:21:41.722Z,34.77
2019-03-24T20:24:12.149Z,36.30
2019-03-24T20:26:42.660Z,38.97
2019-03-24T20:29:13.107Z,36.70
2019-03-24T20:31:43.610Z,33.60
2019-03-24T20:34:14.165Z,36.80
2019-03-24T20:36:44.680Z,34.43
2019-03-24T20:39:15.207Z,33.13
2019-03-24T20:41:45.688Z,35.33
2019-03-24T20:44:16.179Z,35.03
2019-03-24T20:47:05.022Z,34.07
2019-03-24T20:49:35.443Z,35.40
2019-03-24T20:52:05.587Z,34.23
2019-03-24T20:54:35.625Z,35.17
2019-03-24T20:57:05.897Z,34.60
2019-03-24T20:59:36.213Z,34.80
2019-03-24T21:02:06.443Z,34.37
2019-03-24T21:04:38.435Z,36.03
2019-03-24T21:07:08.639Z,36.03
2019-03-24T21:09:38.949Z,36.00
2019-03-24T21:12:11.501Z,35.00
2019-03-24T21:14:41.853Z,38.43
2019-03-24T21:17:12.159Z,40.20
2019-03-24T21:19:42.476Z,40.30
2019-03-24T21:22:12.631Z,40.80
2019-03-24T21:24:42.765Z,40.07
2019-03-24T21:27:12.974Z,39.07
2019-03-24T21:29:43.167Z,40.47
2019-03-24T21:32:13.285Z,40.93
2019-03-24T21:34:43.387Z,39.83
2019-03-24T21:37:13.537Z,37.63
2019-03-24T21:39:43.673Z,37.70
2019-03-24T21:42:13.812Z,38.13
2019-03-24T21:44:43.943Z,38.37
2019-03-24T21:47:14.050Z,38.80
2019-03-24T21:49:44.342Z,41.17
2019-03-24T21:52:14.529Z,39.03
2019-03-24T21:54:44.676Z,39.27
2019-03-24T21:57:14.831Z,40.70
2019-03-24T21:59:44.977Z,40.60
2019-03-24T22:02:15.179Z,40.67
2019-03-24T22:04:45.375Z,41.40
2019-03-24T22:07:15.543Z,42.13
2019-03-24T22:09:45.677Z,41.70
2019-03-24T22:12:15.833Z,41.93
2019-03-24T22:14:45.991Z,42.17
2019-03-24T22:17:16.123Z,42.63
2019-03-24T22:19:46.246Z,41.50
2019-03-24T22:22:16.434Z,42.00
2019-03-24T22:24:46.559Z,43.13
2019-03-24T22:27:16.694Z,40.83
2019-03-24T22:29:46.852Z,42.47
2019-03-24T22:32:17.005Z,40.83
2019-03-24T22:34:47.118Z,41.80
2019-03-24T22:37:17.235Z,41.13
2019-03-24T22:39:47.371Z,39.93
2019-03-24T22:42:17.482Z,40.17
2019-03-24T22:44:47.648Z,39.60
2019-03-24T22:47:17.766Z,40.30
2019-03-24T22:49:47.960Z,40.17
2019-03-24T22:52:18.107Z,39.50
2019-03-24T22:54:48.258Z,41.27
2019-03-24T22:57:18.397Z,40.17
2019-03-24T22:59:48.635Z,40.47
2019-03-24T23:02:18.722Z,39.93
2019-03-24T23:04:48.845Z,40.37
2019-03-24T23:07:18.999Z,39.77
2019-03-24T23:09:49.100Z,41.07
2019-03-24T23:12:19.246Z,41.47
2019-03-24T23:14:49.384Z,40.50
2019-03-24T23:17:19.514Z,40.30
2019-03-24T23:19:49.612Z,39.23
2019-03-24T23:22:19.764Z,39.67
2019-03-24T23:24:49.859Z,39.70
2019-03-24T23:27:20.036Z,39.27
2019-03-24T23:29:50.154Z,38.90
2019-03-24T23:32:20.314Z,39.00
2019-03-24T23:34:50.459Z,37.57
2019-03-24T23:37:20.609Z,37.60
2019-03-24T23:39:50.656Z,37.17
2019-03-24T23:42:20.956Z,37.07
2019-03-24T23:44:51.064Z,36.47
2019-03-24T23:47:21.212Z,36.70
2019-03-24T23:49:51.356Z,36.63
2019-03-24T23:52:21.474Z,38.10
2019-03-24T23:54:51.619Z,37.83
2019-03-24T23:57:21.716Z,36.57
2019-03-24T23:59:51.892Z,37.23
